Time;durP1;ratioP1;P1;durP2;ratioP2;P2;SDS_P1;SDS_P2;PMS_P1;PMS_P2;Temp;Humidity;BMP_temperature;BMP_pressure;BME280_temperature;BME280_humidity;BME280_pressure;Samples;Min_cycle;Max_cycle;Signal;HPM_P1;HPM_P2
2022/04/13 00:01:24;;;;;;;21.52;9.73;;;;;;;;;;5055551;28;20045;-64
2022/04/13 00:03:51;;;;;;;17.85;9.65;;;;;;;;;;5055575;28;20504;-64
2022/04/13 00:06:17;;;;;;;18.23;9.70;;;;;;;;;;5055552;28;20084;-65
2022/04/13 00:08:44;;;;;;;17.13;9.82;;;;;;;;;;5055730;28;20053;-63
2022/04/13 00:11:10;;;;;;;15.98;8.88;;;;;;;;;;5054624;28;20048;-64
2022/04/13 00:13:36;;;;;;;18.77;9.63;;;;;;;;;;5038604;28;20079;-63
2022/04/13 00:16:02;;;;;;;15.25;9.27;;;;;;;;;;5055519;28;20049;-64
2022/04/13 00:18:28;;;;;;;16.83;9.48;;;;;;;;;;5055806;28;20049;-64
2022/04/13 00:20:55;;;;;;;17.58;9.40;;;;;;;;;;5054479;28;20140;-63
2022/04/13 00:23:21;;;;;;;19.48;9.13;;;;;;;;;;5055428;28;20551;-64
2022/04/13 00:25:47;;;;;;;15.43;8.60;;;;;;;;;;5055674;28;20437;-64
2022/04/13 00:28:14;;;;;;;16.52;8.77;;;;;;;;;;5055509;28;20075;-64
2022/04/13 00:30:40;;;;;;;17.50;9.10;;;;;;;;;;5055254;28;20424;-64
2022/04/13 00:33:07;;;;;;;18.13;8.93;;;;;;;;;;5055231;28;20068;-64
2022/04/13 00:35:33;;;;;;;16.65;8.57;;;;;;;;;;5054338;28;20052;-65
2022/04/13 00:37:59;;;;;;;16.92;9.13;;;;;;;;;;5054906;28;20045;-63
2022/04/13 00:40:28;;;;;;;17.98;8.82;;;;;;;;;;5053931;28;20037;-64
2022/04/13 00:42:54;;;;;;;17.38;9.65;;;;;;;;;;5053833;28;20071;-64
2022/04/13 00:45:20;;;;;;;15.45;9.13;;;;;;;;;;5054078;28;20049;-64
2022/04/13 00:47:47;;;;;;;16.25;9.02;;;;;;;;;;5055438;28;20049;-64
2022/04/13 00:50:12;;;;;;;;;;;;;;;;;;5054076;28;20469;-64
2022/04/13 00:52:41;;;;;;;16.20;9.50;;;;;;;;;;5054868;28;20034;-64
2022/04/13 00:55:08;;;;;;;17.23;8.90;;;;;;;;;;5054695;28;20371;-63
2022/04/13 00:57:36;;;;;;;17.50;9.20;;;;;;;;;;5054684;28;20114;-63
2022/04/13 01:00:04;;;;;;;17.17;9.02;;;;;;;;;;5054501;28;20041;-64
2022/04/13 01:02:31;;;;;;;16.63;9.32;;;;;;;;;;5054758;28;20440;-64
2022/04/13 01:05:03;;;;;;;16.23;9.30;;;;;;;;;;5053223;28;20392;-64
2022/04/13 01:07:29;;;;;;;17.75;9.70;;;;;;;;;;5055157;28;20045;-65
2022/04/13 01:09:56;;;;;;;18.25;10.32;;;;;;;;;;5054937;28;20084;-64
2022/04/13 01:12:22;;;;;;;15.98;9.20;;;;;;;;;;5055015;28;20102;-64
2022/04/13 01:14:49;;;;;;;18.65;9.75;;;;;;;;;;5053081;28;20052;-62
2022/04/13 01:17:15;;;;;;;15.35;9.43;;;;;;;;;;5052459;28;20045;-72
2022/04/13 01:19:41;;;;;;;18.40;9.95;;;;;;;;;;5053215;28;20056;-72
2022/04/13 01:22:16;;;;;;;18.55;10.32;;;;;;;;;;5053517;28;20136;-72
2022/04/13 01:24:42;;;;;;;16.73;10.25;;;;;;;;;;5053626;28;20045;-74
2022/04/13 01:27:08;;;;;;;20.75;10.60;;;;;;;;;;5052423;28;20088;-72
2022/04/13 01:29:34;;;;;;;20.05;10.38;;;;;;;;;;5053505;28;20135;-72
2022/04/13 01:32:00;;;;;;;17.73;9.93;;;;;;;;;;5053317;28;20049;-72
2022/04/13 01:34:26;;;;;;;17.73;10.15;;;;;;;;;;5053384;28;20377;-72
2022/04/13 01:36:52;;;;;;;19.63;10.52;;;;;;;;;;5054008;28;20049;-72
2022/04/13 01:39:22;;;;;;;19.33;10.98;;;;;;;;;;5068185;28;20488;-72
2022/04/13 01:41:48;;;;;;;24.90;11.65;;;;;;;;;;5052268;28;20059;-72
2022/04/13 01:44:15;;;;;;;21.90;11.85;;;;;;;;;;5051821;28;20435;-72
2022/04/13 01:46:42;;;;;;;21.70;11.68;;;;;;;;;;5051650;28;20049;-72
2022/04/13 01:49:08;;;;;;;19.50;10.40;;;;;;;;;;5052708;28;20048;-72
2022/04/13 01:51:34;;;;;;;19.17;10.77;;;;;;;;;;5053065;28;20055;-72
2022/04/13 01:54:00;;;;;;;22.40;12.00;;;;;;;;;;5053513;28;20482;-72
2022/04/13 01:56:26;;;;;;;19.58;11.60;;;;;;;;;;5053010;28;20053;-72
2022/04/13 01:58:52;;;;;;;19.80;11.45;;;;;;;;;;5051792;28;20057;-72
2022/04/13 02:01:19;;;;;;;20.88;12.05;;;;;;;;;;5052806;28;20088;-72
2022/04/13 02:03:45;;;;;;;19.05;11.43;;;;;;;;;;5052439;28;20136;-72
2022/04/13 02:06:11;;;;;;;;;;;;;;;;;;5053528;28;20139;-72
2022/04/13 02:08:37;;;;;;;20.02;11.73;;;;;;;;;;5053109;28;20021;-72
2022/04/13 02:11:04;;;;;;;21.33;11.75;;;;;;;;;;5053046;28;20514;-72
2022/04/13 02:13:30;;;;;;;22.95;12.25;;;;;;;;;;5053080;28;20136;-72
2022/04/13 02:15:56;;;;;;;20.90;12.55;;;;;;;;;;5053794;28;20148;-72
2022/04/13 02:18:22;;;;;;;22.00;12.60;;;;;;;;;;5051789;28;20489;-72
2022/04/13 02:20:48;;;;;;;21.50;11.98;;;;;;;;;;5052714;28;20523;-71
2022/04/13 02:23:14;;;;;;;22.63;13.27;;;;;;;;;;5053635;28;20099;-71
2022/04/13 02:25:40;;;;;;;23.13;12.70;;;;;;;;;;5053055;28;20072;-71
2022/04/13 02:28:07;;;;;;;21.27;11.90;;;;;;;;;;5053652;28;20412;-71
2022/04/13 02:30:33;;;;;;;27.20;13.38;;;;;;;;;;5051598;28;20041;-71
2022/04/13 02:32:59;;;;;;;24.75;12.68;;;;;;;;;;5068817;28;20041;-72
2022/04/13 02:35:26;;;;;;;21.67;12.57;;;;;;;;;;5052774;28;20084;-72
2022/04/13 02:37:52;;;;;;;22.05;12.18;;;;;;;;;;5053150;28;20103;-72
2022/04/13 02:40:19;;;;;;;21.77;12.27;;;;;;;;;;5052755;28;20052;-72
2022/04/13 02:42:46;;;;;;;22.15;12.00;;;;;;;;;;5052336;28;20496;-71
2022/04/13 02:45:12;;;;;;;23.50;13.02;;;;;;;;;;5051351;28;20183;-71
2022/04/13 02:47:38;;;;;;;23.65;12.80;;;;;;;;;;5052634;28;20056;-71
2022/04/13 02:50:06;;;;;;;20.08;12.55;;;;;;;;;;5052234;28;20132;-73
2022/04/13 02:52:33;;;;;;;23.23;13.43;;;;;;;;;;5067843;28;20049;-72
2022/04/13 02:54:59;;;;;;;23.02;13.38;;;;;;;;;;5051172;28;20133;-73
2022/04/13 02:57:26;;;;;;;20.80;12.85;;;;;;;;;;5052434;28;20048;-73
2022/04/13 02:59:52;;;;;;;;;;;;;;;;;;5070371;28;20049;-72
2022/04/13 03:02:18;;;;;;;23.23;13.25;;;;;;;;;;5056492;28;19920;-71
2022/04/13 03:04:48;;;;;;;25.75;14.07;;;;;;;;;;5055436;28;20057;-72
2022/04/13 03:07:15;;;;;;;24.23;14.85;;;;;;;;;;5056349;28;20098;-72
2022/04/13 03:09:41;;;;;;;23.10;14.25;;;;;;;;;;5055622;28;20132;-71
2022/04/13 03:12:11;;;;;;;26.15;16.02;;;;;;;;;;5056350;28;20081;-71
2022/04/13 03:14:41;;;;;;;28.77;15.55;;;;;;;;;;5055850;28;20053;-71
2022/04/13 03:17:07;;;;;;;;;;;;;;;;;;5055984;28;20048;-72
2022/04/13 03:19:33;;;;;;;26.38;16.35;;;;;;;;;;5055141;28;19962;-71
2022/04/13 03:21:59;;;;;;;24.75;16.02;;;;;;;;;;5056190;28;20132;-72
2022/04/13 03:24:25;;;;;;;26.98;16.23;;;;;;;;;;5056087;28;20041;-71
2022/04/13 03:26:51;;;;;;;;;;;;;;;;;;5072110;28;20049;-72
2022/04/13 03:29:18;;;;;;;29.05;16.42;;;;;;;;;;5056709;28;19920;-71
2022/04/13 03:31:44;;;;;;;29.83;17.38;;;;;;;;;;5055885;28;20060;-72
2022/04/13 03:34:10;;;;;;;31.85;16.92;;;;;;;;;;5055993;28;20057;-71
2022/04/13 03:36:42;;;;;;;;;;;;;;;;;;5056266;28;20132;-71
2022/04/13 03:39:08;;;;;;;29.70;17.63;;;;;;;;;;5055853;28;19927;-71
2022/04/13 03:41:36;;;;;;;25.08;16.63;;;;;;;;;;5055915;28;20059;-71
2022/04/13 03:44:02;;;;;;;28.75;16.85;;;;;;;;;;5054701;28;20110;-71
2022/04/13 03:46:28;;;;;;;;;;;;;;;;;;5056085;28;20041;-71
2022/04/13 03:48:54;;;;;;;28.33;16.30;;;;;;;;;;5056407;28;19951;-71
2022/04/13 03:51:20;;;;;;;29.98;17.13;;;;;;;;;;5055915;28;20045;-71
2022/04/13 03:53:46;;;;;;;29.70;17.63;;;;;;;;;;5055635;28;20049;-71
2022/04/13 03:56:13;;;;;;;29.63;17.13;;;;;;;;;;5056235;28;20102;-71
2022/04/13 03:58:42;;;;;;;32.08;17.58;;;;;;;;;;5055882;28;20053;-72
2022/04/13 04:01:09;;;;;;;28.35;17.73;;;;;;;;;;5054437;28;20122;-71
2022/04/13 04:03:35;;;;;;;30.67;17.52;;;;;;;;;;5055970;28;20159;-71
2022/04/13 04:06:02;;;;;;;;;;;;;;;;;;5056291;28;20059;-71
2022/04/13 04:08:28;;;;;;;32.60;19.60;;;;;;;;;;5054291;28;20112;-71
2022/04/13 04:10:55;;;;;;;28.10;17.65;;;;;;;;;;5055076;28;20084;-71
2022/04/13 04:13:21;;;;;;;32.45;18.90;;;;;;;;;;5054218;28;20044;-71
2022/04/13 04:15:48;;;;;;;31.98;19.35;;;;;;;;;;5037835;28;20473;-71
2022/04/13 04:18:15;;;;;;;28.52;18.90;;;;;;;;;;5055161;28;20053;-71
2022/04/13 04:20:41;;;;;;;31.63;19.13;;;;;;;;;;5070173;28;20469;-71
2022/04/13 04:23:08;;;;;;;33.20;20.33;;;;;;;;;;5055087;28;20056;-72
2022/04/13 04:25:37;;;;;;;30.60;18.83;;;;;;;;;;5054784;28;20049;-71
2022/04/13 04:28:06;;;;;;;30.63;18.48;;;;;;;;;;5054983;28;20501;-71
2022/04/13 04:30:32;;;;;;;32.45;18.60;;;;;;;;;;5054733;28;20129;-71
2022/04/13 04:32:58;;;;;;;33.80;19.40;;;;;;;;;;5054702;28;20183;-71
2022/04/13 04:35:24;;;;;;;31.38;20.42;;;;;;;;;;5054153;28;20049;-71
2022/04/13 04:37:51;;;;;;;29.75;19.48;;;;;;;;;;5053118;28;20049;-71
2022/04/13 04:40:17;;;;;;;36.63;20.55;;;;;;;;;;5052496;28;20045;-72
2022/04/13 04:42:51;;;;;;;34.17;19.05;;;;;;;;;;5053635;28;20513;-72
2022/04/13 04:45:19;;;;;;;34.22;20.77;;;;;;;;;;5053342;28;20045;-72
2022/04/13 04:47:45;;;;;;;33.05;19.60;;;;;;;;;;5069051;28;20534;-71
2022/04/13 04:50:11;;;;;;;;;;;;;;;;;;5053686;28;20056;-71
2022/04/13 04:52:41;;;;;;;34.58;19.85;;;;;;;;;;5053076;28;20303;-71
2022/04/13 04:55:08;;;;;;;34.65;20.35;;;;;;;;;;5035919;28;20041;-71
2022/04/13 04:57:34;;;;;;;32.45;21.23;;;;;;;;;;5052560;28;20060;-72
2022/04/13 05:00:00;;;;;;;30.42;20.58;;;;;;;;;;5052464;28;20489;-72
2022/04/13 05:02:27;;;;;;;30.85;19.33;;;;;;;;;;5052369;28;20061;-71
2022/04/13 05:04:53;;;;;;;35.50;20.55;;;;;;;;;;5052970;28;20056;-71
2022/04/13 05:07:20;;;;;;;36.85;21.58;;;;;;;;;;5052918;28;20049;-71
2022/04/13 05:09:46;;;;;;;31.80;19.92;;;;;;;;;;5052561;28;20048;-71
2022/04/13 05:12:12;;;;;;;31.52;19.30;;;;;;;;;;5052565;28;20044;-72
2022/04/13 05:14:38;;;;;;;36.00;20.90;;;;;;;;;;5068056;28;20048;-72
2022/04/13 05:17:04;;;;;;;33.88;20.95;;;;;;;;;;5052676;28;20076;-71
2022/04/13 05:19:30;;;;;;;33.20;20.17;;;;;;;;;;5052621;28;20052;-72
2022/04/13 05:21:56;;;;;;;36.33;21.20;;;;;;;;;;5051920;28;20432;-71
2022/04/13 05:24:25;;;;;;;35.67;20.65;;;;;;;;;;5052738;28;20074;-72
2022/04/13 05:26:51;;;;;;;34.08;21.20;;;;;;;;;;5053289;28;20049;-72
2022/04/13 05:29:17;;;;;;;34.80;21.27;;;;;;;;;;5052588;28;20045;-72
2022/04/13 05:31:43;;;;;;;37.00;21.08;;;;;;;;;;5052463;28;20044;-72
2022/04/13 05:34:09;;;;;;;33.88;20.42;;;;;;;;;;5052558;28;20142;-72
2022/04/13 05:36:36;;;;;;;36.75;21.95;;;;;;;;;;5053501;28;20056;-71
2022/04/13 05:39:02;;;;;;;32.95;20.67;;;;;;;;;;5052932;28;20074;-71
2022/04/13 05:41:29;;;;;;;33.78;21.33;;;;;;;;;;5052983;28;20040;-70
2022/04/13 05:43:55;;;;;;;37.45;21.25;;;;;;;;;;5052740;28;20084;-70
2022/04/13 05:46:21;;;;;;;36.92;20.75;;;;;;;;;;5052974;28;20103;-70
2022/04/13 05:48:47;;;;;;;38.20;20.77;;;;;;;;;;5050807;28;20106;-70
2022/04/13 05:51:13;;;;;;;34.42;20.00;;;;;;;;;;5052766;28;20059;-70
2022/04/13 05:53:39;;;;;;;37.50;22.42;;;;;;;;;;5052726;28;20123;-70
2022/04/13 05:56:06;;;;;;;37.30;20.67;;;;;;;;;;5053331;28;20064;-67
2022/04/13 05:58:32;;;;;;;36.55;21.35;;;;;;;;;;5052911;28;20085;-71
2022/04/13 06:00:58;;;;;;;;;;;;;;;;;;5054071;28;20076;-71
2022/04/13 06:03:24;;;;;;;40.53;21.85;;;;;;;;;;5052494;28;20273;-67
2022/04/13 06:05:51;;;;;;;37.30;23.10;;;;;;;;;;5052864;28;20053;-72
2022/04/13 06:08:17;;;;;;;38.05;24.42;;;;;;;;;;5052836;28;20040;-73
2022/04/13 06:10:44;;;;;;;40.63;22.98;;;;;;;;;;5052859;28;20124;-73
2022/04/13 06:13:10;;;;;;;93.53;26.67;;;;;;;;;;5053613;28;20071;-71
2022/04/13 06:15:36;;;;;;;140.63;30.30;;;;;;;;;;5052865;28;20045;-73
2022/04/13 06:18:02;;;;;;;60.97;23.83;;;;;;;;;;5052921;28;20088;-74
2022/04/13 06:20:28;;;;;;;71.97;26.08;;;;;;;;;;5068417;28;20049;-74
2022/04/13 06:22:54;;;;;;;47.75;22.73;;;;;;;;;;5068995;28;20451;-74
2022/04/13 06:25:21;;;;;;;77.47;24.77;;;;;;;;;;5051265;28;20051;-73
2022/04/13 06:27:47;;;;;;;;;;;;;;;;;;5052745;28;20060;-74
2022/04/13 06:30:14;;;;;;;80.03;25.75;;;;;;;;;;5052219;28;20249;-73
2022/04/13 06:32:41;;;;;;;107.47;28.52;;;;;;;;;;5068629;28;20110;-73
2022/04/13 06:35:08;;;;;;;67.55;24.98;;;;;;;;;;5052263;28;20049;-75
2022/04/13 06:37:35;;;;;;;83.03;27.25;;;;;;;;;;5054986;28;20049;-70
2022/04/13 06:40:01;;;;;;;38.35;23.17;;;;;;;;;;5055320;28;20059;-72
2022/04/13 06:42:27;;;;;;;46.60;23.92;;;;;;;;;;5055490;28;20170;-69
2022/04/13 06:44:54;;;;;;;39.38;23.35;;;;;;;;;;5037990;28;20048;-71
2022/04/13 06:47:21;;;;;;;42.92;23.92;;;;;;;;;;5054958;28;20461;-74
2022/04/13 06:49:47;;;;;;;;;;;;;;;;;;5054056;28;20049;-69
2022/04/13 06:52:13;;;;;;;61.00;24.40;;;;;;;;;;5055258;28;19927;-71
2022/04/13 06:54:40;;;;;;;43.53;22.55;;;;;;;;;;5054691;28;20128;-68
2022/04/13 06:57:06;;;;;;;58.70;24.77;;;;;;;;;;5054752;28;20048;-70
2022/04/13 06:59:32;;;;;;;73.80;25.83;;;;;;;;;;5054695;28;20041;-69
2022/04/13 07:01:58;;;;;;;64.75;24.73;;;;;;;;;;5036811;28;20087;-66
2022/04/13 07:04:34;;;;;;;36.75;22.50;;;;;;;;;;5055273;28;20056;-70
2022/04/13 07:07:00;;;;;;;;;;;;;;;;;;5054582;28;20045;-76
2022/04/13 07:09:26;;;;;;;42.42;22.17;;;;;;;;;;5055133;28;19931;-66
2022/04/13 07:11:52;;;;;;;47.10;22.90;;;;;;;;;;5052943;28;20041;-71
2022/04/13 07:14:18;;;;;;;35.97;21.13;;;;;;;;;;5053434;28;20131;-68
2022/04/13 07:16:44;;;;;;;39.22;21.63;;;;;;;;;;5069916;28;20053;-71
2022/04/13 07:19:10;;;;;;;35.00;21.30;;;;;;;;;;5069838;28;20052;-67
2022/04/13 07:21:39;;;;;;;39.45;20.02;;;;;;;;;;5053281;28;20112;-72
2022/04/13 07:24:06;;;;;;;41.47;21.20;;;;;;;;;;5053552;28;20366;-70
2022/04/13 07:26:32;;;;;;;40.25;21.88;;;;;;;;;;5053406;28;20044;-67
2022/04/13 07:29:17;;;;;;;37.67;20.75;;;;;;;;;;5054422;28;20039;-66
2022/04/13 07:31:43;;;;;;;148.20;29.60;;;;;;;;;;5054200;28;20377;-66
2022/04/13 07:34:09;;;;;;;43.35;21.05;;;;;;;;;;5069737;28;20103;-67
2022/04/13 07:36:35;;;;;;;44.03;19.08;;;;;;;;;;5054063;28;20056;-66
2022/04/13 07:39:02;;;;;;;93.55;23.15;;;;;;;;;;5053857;28;20075;-65
2022/04/13 07:41:29;;;;;;;37.67;18.15;;;;;;;;;;5069500;28;20218;-65
2022/04/13 07:43:57;;;;;;;31.58;17.38;;;;;;;;;;5054258;28;20075;-67
2022/04/13 07:46:27;;;;;;;34.78;19.00;;;;;;;;;;5052161;28;20562;-66
2022/04/13 07:48:53;;;;;;;34.95;17.80;;;;;;;;;;5053528;28;20440;-67
2022/04/13 07:51:19;;;;;;;38.05;19.73;;;;;;;;;;5053656;28;20040;-65
2022/04/13 07:54:01;;;;;;;33.00;18.60;;;;;;;;;;5053321;28;20076;-64
2022/04/13 07:56:28;;;;;;;39.78;19.27;;;;;;;;;;5053602;28;20432;-67
2022/04/13 07:58:54;;;;;;;35.08;19.40;;;;;;;;;;5053433;28;20495;-65
2022/04/13 08:01:20;;;;;;;47.70;20.63;;;;;;;;;;5053508;28;20088;-64
2022/04/13 08:03:46;;;;;;;36.75;18.35;;;;;;;;;;5069301;28;20061;-66
2022/04/13 08:06:20;;;;;;;36.67;19.77;;;;;;;;;;5052038;28;20128;-63
2022/04/13 08:08:46;;;;;;;32.20;18.88;;;;;;;;;;5054092;28;20144;-64
2022/04/13 08:11:12;;;;;;;34.67;19.05;;;;;;;;;;5053091;28;20048;-66
2022/04/13 08:13:41;;;;;;;42.40;20.15;;;;;;;;;;5052851;28;20426;-65
2022/04/13 08:16:07;;;;;;;30.75;19.00;;;;;;;;;;5053269;28;20072;-63
2022/04/13 08:18:33;;;;;;;33.47;19.25;;;;;;;;;;5053247;28;20044;-64
2022/04/13 08:20:59;;;;;;;43.38;19.50;;;;;;;;;;5052963;28;20082;-62
2022/04/13 08:23:25;;;;;;;41.28;20.55;;;;;;;;;;5052976;28;20048;-64
2022/04/13 08:25:51;;;;;;;32.28;18.02;;;;;;;;;;5051692;28;20052;-66
2022/04/13 08:28:18;;;;;;;35.55;18.45;;;;;;;;;;5053060;28;20183;-66
2022/04/13 08:30:47;;;;;;;30.15;18.13;;;;;;;;;;5051401;28;20088;-66
2022/04/13 08:33:13;;;;;;;30.42;18.08;;;;;;;;;;5052976;28;20512;-66
2022/04/13 08:35:40;;;;;;;32.63;17.73;;;;;;;;;;5052552;28;20135;-66
2022/04/13 08:38:06;;;;;;;29.30;17.40;;;;;;;;;;5052480;28;20401;-66
2022/04/13 08:40:35;;;;;;;31.58;16.40;;;;;;;;;;5052973;28;20136;-66
2022/04/13 08:43:10;;;;;;;35.75;17.65;;;;;;;;;;5052719;28;20396;-66
2022/04/13 08:45:42;;;;;;;39.03;17.58;;;;;;;;;;5052880;28;20080;-65
2022/04/13 08:48:12;;;;;;;30.33;17.10;;;;;;;;;;5052343;28;20048;-63
2022/04/13 08:50:38;;;;;;;36.83;17.90;;;;;;;;;;5052519;28;20102;-66
2022/04/13 08:53:09;;;;;;;27.70;14.85;;;;;;;;;;5052389;28;20049;-63
2022/04/13 08:55:35;;;;;;;28.15;14.77;;;;;;;;;;5068244;28;20136;-65
2022/04/13 08:58:04;;;;;;;28.33;15.63;;;;;;;;;;5051368;28;20045;-66
2022/04/13 09:00:31;;;;;;;30.52;15.85;;;;;;;;;;5052227;28;20479;-66
2022/04/13 09:03:06;;;;;;;27.25;13.63;;;;;;;;;;5051194;28;20131;-66
2022/04/13 09:05:33;;;;;;;30.80;14.50;;;;;;;;;;5052246;28;20179;-65
2022/04/13 09:08:25;;;;;;;31.42;14.88;;;;;;;;;;5051941;28;20045;-64
2022/04/13 09:10:52;;;;;;;30.23;15.77;;;;;;;;;;5035163;28;20041;-65
2022/04/13 09:13:20;;;;;;;25.60;14.10;;;;;;;;;;5052440;28;20052;-66
2022/04/13 09:15:47;;;;;;;29.10;14.55;;;;;;;;;;5051851;28;20040;-66
2022/04/13 09:18:13;;;;;;;32.35;13.50;;;;;;;;;;5067290;28;20049;-65
2022/04/13 09:20:39;;;;;;;23.65;13.40;;;;;;;;;;5051329;28;20134;-66
2022/04/13 09:23:05;;;;;;;;;;;;;;;;;;5052261;28;20064;-67
2022/04/13 09:25:32;;;;;;;26.55;13.43;;;;;;;;;;5051937;28;19921;-66
2022/04/13 09:27:59;;;;;;;23.02;11.95;;;;;;;;;;5051543;28;20049;-66
2022/04/13 09:30:28;;;;;;;23.08;12.05;;;;;;;;;;5052284;28;20047;-64
2022/04/13 09:32:55;;;;;;;21.42;10.88;;;;;;;;;;5052358;28;20052;-63
2022/04/13 09:35:21;;;;;;;;;;;;;;;;;;5052139;28;20044;-64
2022/04/13 09:37:47;;;;;;;24.33;10.48;;;;;;;;;;5051611;28;19921;-64
2022/04/13 09:40:32;;;;;;;21.40;11.18;;;;;;;;;;5051548;28;20048;-63
2022/04/13 09:43:03;;;;;;;28.75;10.65;;;;;;;;;;5051250;28;20045;-62
2022/04/13 09:45:34;;;;;;;22.50;11.18;;;;;;;;;;5050296;28;20488;-66
2022/04/13 09:48:00;;;;;;;27.33;11.07;;;;;;;;;;5067184;28;20049;-66
2022/04/13 09:50:26;;;;;;;34.47;12.88;;;;;;;;;;5050997;28;20176;-62
2022/04/13 09:52:52;;;;;;;23.33;9.60;;;;;;;;;;5051384;28;20075;-66
2022/04/13 09:55:22;;;;;;;21.30;10.73;;;;;;;;;;5051853;28;20144;-66
2022/04/13 09:57:48;;;;;;;21.08;10.00;;;;;;;;;;5051338;28;20084;-65
2022/04/13 10:00:17;;;;;;;23.83;10.20;;;;;;;;;;5051160;28;20041;-65
2022/04/13 10:02:45;;;;;;;22.40;9.43;;;;;;;;;;5050033;28;20145;-62
2022/04/13 10:05:31;;;;;;;18.13;8.75;;;;;;;;;;5050504;28;20144;-66
2022/04/13 10:08:04;;;;;;;20.27;9.27;;;;;;;;;;5050222;28;20450;-66
2022/04/13 10:10:31;;;;;;;28.77;10.90;;;;;;;;;;5051107;28;20083;-63
2022/04/13 10:12:57;;;;;;;21.77;9.02;;;;;;;;;;5049746;28;20070;-63
2022/04/13 10:15:24;;;;;;;16.33;7.90;;;;;;;;;;5050698;28;20049;-61
2022/04/13 10:17:50;;;;;;;14.65;6.80;;;;;;;;;;5051453;28;20045;-63
2022/04/13 10:20:16;;;;;;;15.98;6.75;;;;;;;;;;5050717;28;20051;-63
2022/04/13 10:23:01;;;;;;;18.50;6.57;;;;;;;;;;5050193;28;20041;-64
2022/04/13 10:25:28;;;;;;;17.60;7.38;;;;;;;;;;5049787;28;20057;-65
2022/04/13 10:27:58;;;;;;;18.10;7.90;;;;;;;;;;5050849;28;20400;-64
2022/04/13 10:30:29;;;;;;;17.00;6.72;;;;;;;;;;5049368;28;20049;-65
2022/04/13 10:33:09;;;;;;;18.55;8.30;;;;;;;;;;5050101;28;20056;-64
2022/04/13 10:35:36;;;;;;;13.25;6.05;;;;;;;;;;5050650;28;20442;-62
2022/04/13 10:38:03;;;;;;;18.67;6.72;;;;;;;;;;5051078;28;20144;-64
2022/04/13 10:40:30;;;;;;;19.27;7.13;;;;;;;;;;5049288;28;20049;-64
2022/04/13 10:43:03;;;;;;;15.27;6.82;;;;;;;;;;5049295;28;20053;-65
2022/04/13 10:45:35;;;;;;;16.58;7.05;;;;;;;;;;5050943;28;20107;-63
2022/04/13 10:48:05;;;;;;;15.27;6.65;;;;;;;;;;5050393;28;20061;-63
2022/04/13 10:50:33;;;;;;;13.63;5.63;;;;;;;;;;5032322;28;20040;-64
2022/04/13 10:53:20;;;;;;;14.00;6.13;;;;;;;;;;5050969;28;20049;-64
2022/04/13 10:55:58;;;;;;;14.13;6.05;;;;;;;;;;5050715;28;20481;-63
2022/04/13 10:58:37;;;;;;;15.82;6.78;;;;;;;;;;5049738;28;20100;-64
2022/04/13 11:01:04;;;;;;;15.63;6.30;;;;;;;;;;5050428;28;20082;-63
2022/04/13 11:03:36;;;;;;;19.08;7.13;;;;;;;;;;5048827;28;20489;-63
2022/04/13 11:06:06;;;;;;;31.80;8.98;;;;;;;;;;5050421;28;20053;-63
2022/04/13 11:08:51;;;;;;;37.88;11.77;;;;;;;;;;5049071;28;20049;-71
2022/04/13 11:11:19;;;;;;;14.40;5.72;;;;;;;;;;5050419;28;20072;-65
2022/04/13 11:13:49;;;;;;;14.98;6.20;;;;;;;;;;5049476;28;20045;-63
2022/04/13 11:16:16;;;;;;;34.60;9.60;;;;;;;;;;5050521;28;20133;-65
2022/04/13 11:18:43;;;;;;;16.98;5.47;;;;;;;;;;5049038;28;20048;-64
2022/04/13 11:21:10;;;;;;;14.85;6.28;;;;;;;;;;5052349;28;20088;-66
2022/04/13 11:23:39;;;;;;;18.65;6.40;;;;;;;;;;5054523;28;20036;-64
2022/04/13 11:26:05;;;;;;;15.90;6.20;;;;;;;;;;5054575;28;20048;-64
2022/04/13 11:28:31;;;;;;;16.23;6.70;;;;;;;;;;5054360;28;20048;-63
2022/04/13 11:31:13;;;;;;;23.90;7.18;;;;;;;;;;5052802;28;20400;-64
2022/04/13 11:33:58;;;;;;;20.42;7.75;;;;;;;;;;5053094;28;20056;-65
2022/04/13 11:36:27;;;;;;;19.02;6.45;;;;;;;;;;5053509;28;20052;-64
2022/04/13 11:38:54;;;;;;;19.30;7.28;;;;;;;;;;5053851;28;20083;-65
2022/04/13 11:41:20;;;;;;;44.92;10.27;;;;;;;;;;5053640;28;20041;-63
2022/04/13 11:43:47;;;;;;;15.52;6.55;;;;;;;;;;5053779;28;20070;-61
2022/04/13 11:46:31;;;;;;;19.85;7.95;;;;;;;;;;5053570;28;20052;-64
2022/04/13 11:48:57;;;;;;;15.57;7.63;;;;;;;;;;5052541;28;20126;-62
2022/04/13 11:51:29;;;;;;;17.30;7.57;;;;;;;;;;5052224;28;20049;-64
2022/04/13 11:53:56;;;;;;;17.98;7.10;;;;;;;;;;5053243;28;20128;-61
2022/04/13 11:56:32;;;;;;;13.45;5.25;;;;;;;;;;5052812;28;20079;-61
2022/04/13 11:58:58;;;;;;;16.30;5.00;;;;;;;;;;5052152;28;20045;-61
2022/04/13 12:01:26;;;;;;;17.65;4.28;;;;;;;;;;5053540;28;20053;-61
2022/04/13 12:03:52;;;;;;;15.35;4.45;;;;;;;;;;5052250;28;20053;-63
2022/04/13 12:06:21;;;;;;;13.85;4.28;;;;;;;;;;5053233;28;20118;-63
2022/04/13 12:08:50;;;;;;;14.18;4.10;;;;;;;;;;5053470;28;20422;-62
2022/04/13 12:11:18;;;;;;;14.90;4.82;;;;;;;;;;5052754;28;20045;-64
2022/04/13 12:13:59;;;;;;;16.05;5.25;;;;;;;;;;5051695;28;20048;-64
2022/04/13 12:16:29;;;;;;;21.52;5.03;;;;;;;;;;5053056;28;20052;-63
2022/04/13 12:18:56;;;;;;;17.80;6.75;;;;;;;;;;5051670;28;20056;-63
2022/04/13 12:21:24;;;;;;;19.25;6.18;;;;;;;;;;5051723;28;20041;-63
2022/04/13 12:23:51;;;;;;;22.58;6.47;;;;;;;;;;5053322;28;20127;-64
2022/04/13 12:26:29;;;;;;;20.10;5.55;;;;;;;;;;5052761;28;20494;-62
2022/04/13 12:28:56;;;;;;;17.20;5.60;;;;;;;;;;5052821;28;20138;-61
2022/04/13 12:31:22;;;;;;;20.27;5.47;;;;;;;;;;5052516;28;20048;-62
2022/04/13 12:33:48;;;;;;;14.45;5.63;;;;;;;;;;5052770;28;20457;-63
2022/04/13 12:36:14;;;;;;;;;;;;;;;;;;5053650;28;20138;-64
2022/04/13 12:38:46;;;;;;;24.30;6.50;;;;;;;;;;5051593;28;19927;-64
2022/04/13 12:41:17;;;;;;;15.93;6.50;;;;;;;;;;5052724;28;20128;-61
2022/04/13 12:43:44;;;;;;;20.63;8.55;;;;;;;;;;5052639;28;20041;-61
2022/04/13 12:46:11;;;;;;;25.75;8.50;;;;;;;;;;5051843;28;20132;-61
2022/04/13 12:48:37;;;;;;;22.60;8.60;;;;;;;;;;5051245;28;20045;-60
2022/04/13 12:51:03;;;;;;;;;;;;;;;;;;5051590;28;20048;-61
2022/04/13 12:53:39;;;;;;;26.00;9.13;;;;;;;;;;5052282;28;19921;-61
2022/04/13 12:56:06;;;;;;;38.28;10.02;;;;;;;;;;5053040;28;20468;-61
2022/04/13 12:58:31;;;;;;;;;;;;;;;;;;5052891;28;20052;-64
2022/04/13 13:00:58;;;;;;;18.17;7.00;;;;;;;;;;5052207;28;20309;-63
2022/04/13 13:03:32;;;;;;;19.65;6.85;;;;;;;;;;5050828;28;20060;-63
2022/04/13 13:06:06;;;;;;;19.65;6.30;;;;;;;;;;5034461;28;20470;-62
2022/04/13 13:08:32;;;;;;;144.82;23.75;;;;;;;;;;5052281;28;20045;-63
2022/04/13 13:10:58;;;;;;;20.10;5.40;;;;;;;;;;5051123;28;20393;-64
2022/04/13 13:13:24;;;;;;;17.98;4.60;;;;;;;;;;5052174;28;20131;-66
2022/04/13 13:15:50;;;;;;;16.35;5.47;;;;;;;;;;5051833;28;20106;-64
2022/04/13 13:18:18;;;;;;;14.20;4.82;;;;;;;;;;5051760;28;20045;-65
2022/04/13 13:20:57;;;;;;;26.38;6.53;;;;;;;;;;5050635;28;20153;-63
2022/04/13 13:23:25;;;;;;;18.38;5.28;;;;;;;;;;5049822;28;20515;-64
2022/04/13 13:25:51;;;;;;;19.00;5.57;;;;;;;;;;5051643;28;20055;-66
2022/04/13 13:28:17;;;;;;;20.55;5.72;;;;;;;;;;5051372;28;20505;-66
2022/04/13 13:30:50;;;;;;;17.70;5.72;;;;;;;;;;5051257;28;20045;-62
2022/04/13 13:33:16;;;;;;;20.73;6.03;;;;;;;;;;5051549;28;20079;-63
2022/04/13 13:35:42;;;;;;;18.45;5.78;;;;;;;;;;5050919;28;20123;-64
2022/04/13 13:38:09;;;;;;;17.13;5.40;;;;;;;;;;5051875;28;20041;-63
2022/04/13 13:40:35;;;;;;;18.92;6.45;;;;;;;;;;5051367;28;20041;-65
2022/04/13 13:43:02;;;;;;;16.42;5.45;;;;;;;;;;5049748;28;20106;-64
2022/04/13 13:45:29;;;;;;;16.27;5.75;;;;;;;;;;5050401;28;20053;-64
2022/04/13 13:47:56;;;;;;;20.95;6.47;;;;;;;;;;5051247;28;20049;-62
2022/04/13 13:50:22;;;;;;;16.65;6.13;;;;;;;;;;5050566;28;20136;-63
2022/04/13 13:52:48;;;;;;;18.17;6.22;;;;;;;;;;5050385;28;20460;-64
2022/04/13 13:55:14;;;;;;;;;;;;;;;;;;5051037;28;20053;-64
2022/04/13 13:57:40;;;;;;;22.10;5.43;;;;;;;;;;5032908;28;19966;-65
2022/04/13 14:00:08;;;;;;;16.85;5.40;;;;;;;;;;5050228;28;20388;-65
2022/04/13 14:02:36;;;;;;;15.20;5.43;;;;;;;;;;5050900;28;20111;-64
2022/04/13 14:05:03;;;;;;;15.93;6.20;;;;;;;;;;5051475;28;20057;-64
2022/04/13 14:07:29;;;;;;;;;;;;;;;;;;5033943;28;20049;-64
2022/04/13 14:09:55;;;;;;;19.15;6.90;;;;;;;;;;5033541;28;20019;-64
2022/04/13 14:12:21;;;;;;;19.10;6.80;;;;;;;;;;5050787;28;20092;-63
2022/04/13 14:14:47;;;;;;;;;;;;;;;;;;5049958;28;20080;-63
2022/04/13 14:17:13;;;;;;;18.27;6.70;;;;;;;;;;5051308;28;19978;-64
2022/04/13 14:19:39;;;;;;;18.77;6.75;;;;;;;;;;5049239;28;20120;-64
2022/04/13 14:22:05;;;;;;;21.85;7.32;;;;;;;;;;5050679;28;20045;-63
2022/04/13 14:24:31;;;;;;;21.33;6.90;;;;;;;;;;5050839;28;20071;-64
2022/04/13 14:26:57;;;;;;;20.88;7.47;;;;;;;;;;5050742;28;20085;-65
2022/04/13 14:29:23;;;;;;;18.33;7.80;;;;;;;;;;5050859;28;20541;-68
2022/04/13 14:31:49;;;;;;;16.05;6.85;;;;;;;;;;5050202;28;20417;-64